Vernon, Vermont
Current Conditions -  °F | °C
As of 11:15 AM on Thursday 27 Nov 2014 (Local Time) from KEEN Reporting Station
Overcast Overcast  
Wind Chill: 25°   Ceiling: 2100
Heat Index: 30°   Visibility: 10mi
Dew Point: 27°   Wind: 5mph
Humidity: 86%   Direction: 350°N
Pressure: 29.95"   Gusts: NA
Location:  42.76°N, 72.51°W
Report Text: KEEN 271615Z AUTO 35004KT 10SM OVC021 M01/M03 A2995 RMK AO1 P0001
Loading
Personal Weather Stations






























Interactive Weather Map New forecast layout! Learn more

10-Day Weather Forecast

Advertisements
Track Severe Weather on mobile